createdAt,value
2019-02-15T00:01:32.993Z,-0.30
2019-02-15T00:04:00.797Z,-0.30
2019-02-15T00:06:28.629Z,-0.40
2019-02-15T00:08:56.444Z,-0.40
2019-02-15T00:11:24.276Z,-0.50
2019-02-15T00:13:52.090Z,-0.50
2019-02-15T00:16:19.878Z,-0.50
2019-02-15T00:19:19.349Z,-0.50
2019-02-15T00:21:49.667Z,-0.50
2019-02-15T00:24:17.475Z,-0.50
2019-02-15T00:26:45.301Z,-0.50
2019-02-15T00:29:13.226Z,-0.40
2019-02-15T00:31:41.061Z,-0.50
2019-02-15T00:34:08.861Z,-0.20
2019-02-15T00:36:36.692Z,-0.40
2019-02-15T00:39:05.966Z,-0.50
2019-02-15T00:41:33.846Z,-0.50
2019-02-15T00:44:01.687Z,-0.50
2019-02-15T00:46:42.563Z,-0.60
2019-02-15T00:49:16.000Z,-0.50
2019-02-15T00:52:12.412Z,-0.30
2019-02-15T00:54:59.777Z,-0.50
2019-02-15T00:57:50.391Z,-0.30
2019-02-15T01:00:55.619Z,-0.60
2019-02-15T01:03:42.448Z,-0.60
2019-02-15T01:06:30.716Z,-0.60
2019-02-15T01:09:18.156Z,-0.30
2019-02-15T01:12:11.320Z,-0.10
2019-02-15T01:14:39.099Z,-0.50
2019-02-15T01:17:07.024Z,-0.60
2019-02-15T01:19:34.865Z,-0.70
2019-02-15T01:22:02.652Z,-0.60
2019-02-15T01:24:30.455Z,-0.80
2019-02-15T01:27:01.407Z,-0.40
2019-02-15T01:29:47.381Z,-0.80
2019-02-15T01:32:41.662Z,-0.80
2019-02-15T01:35:31.376Z,-0.30
2019-02-15T01:38:18.907Z,-0.30
2019-02-15T01:41:04.217Z,-0.90
2019-02-15T01:43:54.594Z,-0.90
2019-02-15T01:46:29.279Z,-0.90
2019-02-15T01:48:57.065Z,-0.90
2019-02-15T01:51:24.857Z,-0.90
2019-02-15T01:53:52.634Z,-1.00
2019-02-15T01:56:20.430Z,-0.40
2019-02-15T01:58:48.241Z,-1.00
2019-02-15T02:01:20.885Z,-0.50
2019-02-15T02:03:48.700Z,-1.10
2019-02-15T02:06:17.081Z,-1.10
2019-02-15T02:08:44.837Z,-1.10
2019-02-15T02:11:32.041Z,-0.80
2019-02-15T02:13:59.866Z,-0.90
2019-02-15T02:16:27.698Z,-1.10
2019-02-15T02:18:55.735Z,-1.30
2019-02-15T02:21:23.525Z,-1.00
2019-02-15T02:23:51.364Z,-1.00
2019-02-15T02:26:19.118Z,-1.00
2019-02-15T02:28:52.026Z,-1.00
2019-02-15T02:31:19.768Z,-1.10
2019-02-15T02:33:48.689Z,-1.10
2019-02-15T02:36:16.443Z,-0.80
2019-02-15T02:38:49.336Z,-0.50
2019-02-15T02:41:34.606Z,-1.00
2019-02-15T02:44:16.257Z,-0.40
2019-02-15T02:46:44.103Z,-1.00
2019-02-15T02:49:11.980Z,-1.00
2019-02-15T02:51:39.779Z,-1.10
2019-02-15T02:54:07.564Z,-1.10
2019-02-15T02:56:35.351Z,-1.00
2019-02-15T02:59:03.101Z,-1.00
2019-02-15T03:01:30.887Z,-1.00
2019-02-15T03:03:58.710Z,-1.00
2019-02-15T03:06:26.527Z,-0.70
2019-02-15T03:08:54.698Z,-0.60
2019-02-15T03:11:22.460Z,-1.00
2019-02-15T03:13:50.248Z,-1.00
2019-02-15T03:16:18.049Z,-0.80
2019-02-15T03:18:46.039Z,-0.90
2019-02-15T03:21:13.845Z,-1.00
2019-02-15T03:23:41.658Z,-1.00
2019-02-15T03:26:09.479Z,-0.90
2019-02-15T03:28:37.284Z,-0.90
2019-02-15T03:31:05.096Z,-0.90
2019-02-15T03:33:32.974Z,-0.40
2019-02-15T03:36:03.087Z,-0.80
2019-02-15T03:38:59.350Z,-0.80
2019-02-15T03:41:30.196Z,-0.80
2019-02-15T03:43:58.016Z,-0.70
2019-02-15T03:46:25.882Z,-0.70
2019-02-15T03:48:53.697Z,-0.70
2019-02-15T03:51:21.470Z,-0.40
2019-02-15T03:53:49.299Z,-0.80
2019-02-15T03:56:17.072Z,-0.80
2019-02-15T03:58:44.854Z,-0.80
2019-02-15T04:01:12.611Z,-0.80
2019-02-15T04:03:40.430Z,-0.50
2019-02-15T04:06:08.275Z,-0.40
2019-02-15T04:08:41.233Z,-1.00
2019-02-15T04:11:09.046Z,-1.10
2019-02-15T04:13:37.148Z,-1.10
2019-02-15T04:16:04.916Z,-1.20
2019-02-15T04:18:32.890Z,-1.20
2019-02-15T04:21:00.684Z,-1.20
2019-02-15T04:23:28.616Z,-1.30
2019-02-15T04:25:56.495Z,-0.80
2019-02-15T04:28:25.584Z,-1.30
2019-02-15T04:30:54.626Z,-0.80
2019-02-15T04:33:22.451Z,-1.20
2019-02-15T04:35:50.277Z,-1.20
2019-02-15T04:38:23.300Z,-1.30
2019-02-15T04:40:51.092Z,-1.30
2019-02-15T04:43:18.876Z,-1.40
2019-02-15T04:45:46.727Z,-1.40
2019-02-15T04:48:18.730Z,-1.20
2019-02-15T04:50:46.531Z,-1.50
2019-02-15T04:53:14.262Z,-1.50
2019-02-15T04:55:42.108Z,-1.10
2019-02-15T04:58:10.043Z,-1.50
2019-02-15T05:00:37.845Z,-1.60
2019-02-15T05:03:05.669Z,-1.30
2019-02-15T05:05:33.495Z,-1.10
2019-02-15T05:08:01.426Z,-1.00
2019-02-15T05:10:29.272Z,-1.80
2019-02-15T05:12:57.099Z,-1.50
2019-02-15T05:15:24.921Z,-1.60
2019-02-15T05:17:52.785Z,-2.10
2019-02-15T05:20:20.535Z,-2.00
2019-02-15T05:22:48.358Z,-2.10
2019-02-15T05:25:16.190Z,-2.20
2019-02-15T05:27:44.111Z,-2.20
2019-02-15T05:30:11.958Z,-2.30
2019-02-15T05:32:39.704Z,-2.30
2019-02-15T05:35:07.584Z,-1.60
2019-02-15T05:37:35.390Z,-2.40
2019-02-15T05:40:03.406Z,-2.50
2019-02-15T05:42:31.169Z,-2.50
2019-02-15T05:45:03.538Z,-2.50
2019-02-15T05:47:28.666Z,-2.10
2019-02-15T05:49:56.506Z,-2.50
2019-02-15T05:52:24.347Z,-2.50
2019-02-15T05:54:52.119Z,-2.20
2019-02-15T05:57:19.907Z,-2.60
2019-02-15T05:59:47.702Z,-2.20
2019-02-15T06:02:15.516Z,-2.10
2019-02-15T06:04:43.304Z,-2.60
2019-02-15T06:07:41.621Z,-2.00
2019-02-15T06:10:28.842Z,-2.70
2019-02-15T06:12:56.955Z,-1.80
2019-02-15T06:15:24.771Z,-2.50
2019-02-15T06:17:52.870Z,-2.80
2019-02-15T06:20:20.707Z,-2.80
2019-02-15T06:22:48.536Z,-2.80
2019-02-15T06:25:16.339Z,-2.80
2019-02-15T06:27:45.456Z,-2.70
2019-02-15T06:30:13.233Z,-2.40
2019-02-15T06:33:00.485Z,-2.90
2019-02-15T06:35:28.324Z,-2.30
2019-02-15T06:37:56.133Z,-2.70
2019-02-15T06:40:23.923Z,-2.80
2019-02-15T06:42:51.715Z,-2.80
2019-02-15T06:45:24.888Z,-2.60
2019-02-15T06:47:49.416Z,-2.70
2019-02-15T06:50:17.199Z,-2.70
2019-02-15T06:52:45.038Z,-2.60
2019-02-15T06:55:12.798Z,-2.60
2019-02-15T06:57:40.806Z,-2.50
2019-02-15T07:00:31.901Z,-2.40
2019-02-15T07:03:08.955Z,-1.70
2019-02-15T07:05:36.773Z,-1.60
2019-02-15T07:08:05.003Z,-2.00
2019-02-15T07:10:32.879Z,-1.80
2019-02-15T07:13:01.027Z,-1.50
2019-02-15T07:15:33.879Z,-1.30
2019-02-15T07:17:58.504Z,-1.70
2019-02-15T07:20:26.393Z,-1.60
2019-02-15T07:22:54.262Z,-1.40
2019-02-15T07:25:22.111Z,-1.60
2019-02-15T07:27:49.951Z,-1.50
2019-02-15T07:30:17.744Z,-1.50
2019-02-15T07:32:45.520Z,-0.90
2019-02-15T07:35:13.327Z,-1.30
2019-02-15T07:37:41.133Z,-1.30
2019-02-15T07:40:09.366Z,0.10
2019-02-15T07:42:37.210Z,1.00
2019-02-15T07:45:06.412Z,2.10
2019-02-15T07:47:34.264Z,3.20
2019-02-15T07:50:02.211Z,4.40
2019-02-15T07:52:29.978Z,5.00
2019-02-15T07:54:57.749Z,6.10
2019-02-15T07:57:25.545Z,6.80
2019-02-15T07:59:53.353Z,7.10
2019-02-15T08:02:21.149Z,7.60
2019-02-15T08:04:48.949Z,8.40
2019-02-15T08:07:16.735Z,9.20
2019-02-15T08:09:44.592Z,10.00
2019-02-15T08:12:12.421Z,10.50
2019-02-15T08:14:40.251Z,11.00
2019-02-15T08:17:08.091Z,11.30
2019-02-15T08:19:35.921Z,12.00
2019-02-15T08:22:03.764Z,11.20
2019-02-15T08:24:31.568Z,9.70
2019-02-15T08:26:59.648Z,8.60
2019-02-15T08:29:27.446Z,7.60
2019-02-15T08:31:55.245Z,6.60
2019-02-15T08:34:23.130Z,6.00
2019-02-15T08:36:56.080Z,5.50
2019-02-15T08:39:24.143Z,5.20
2019-02-15T08:42:01.273Z,4.70
2019-02-15T08:44:21.671Z,4.80
2019-02-15T08:46:49.742Z,4.00
2019-02-15T08:49:17.547Z,3.80
2019-02-15T08:51:45.353Z,3.60
2019-02-15T08:54:13.194Z,3.40
2019-02-15T08:56:46.341Z,3.40
2019-02-15T08:59:14.119Z,3.20
2019-02-15T09:01:41.939Z,3.20
2019-02-15T09:04:09.722Z,3.20
2019-02-15T09:06:37.498Z,3.20
2019-02-15T09:09:06.418Z,3.50
2019-02-15T09:11:34.192Z,3.30
2019-02-15T09:14:02.016Z,2.90
2019-02-15T09:16:30.679Z,2.90
2019-02-15T09:18:58.503Z,2.80
2019-02-15T09:21:26.344Z,2.90
2019-02-15T09:23:54.141Z,2.90
2019-02-15T09:26:21.904Z,2.90
2019-02-15T09:28:54.340Z,3.20
2019-02-15T09:31:22.150Z,3.00
2019-02-15T09:33:49.915Z,3.40
2019-02-15T09:36:17.718Z,3.30
2019-02-15T09:38:45.753Z,3.30
2019-02-15T09:41:25.721Z,3.30
2019-02-15T09:43:55.530Z,3.50
2019-02-15T09:46:24.425Z,3.40
2019-02-15T09:48:52.339Z,3.40
2019-02-15T09:51:20.212Z,3.50
2019-02-15T09:53:48.061Z,3.60
2019-02-15T09:56:15.884Z,3.70
2019-02-15T09:58:43.786Z,3.80
2019-02-15T10:01:11.637Z,3.90
2019-02-15T10:03:39.422Z,3.90
2019-02-15T10:06:07.238Z,4.20
2019-02-15T10:08:35.157Z,4.40
2019-02-15T10:11:02.995Z,4.20
2019-02-15T10:13:30.796Z,4.20
2019-02-15T10:15:58.783Z,4.30
2019-02-15T10:18:26.859Z,4.00
2019-02-15T10:20:54.680Z,4.50
2019-02-15T10:23:25.262Z,4.60
2019-02-15T10:26:12.575Z,4.70
2019-02-15T10:28:45.312Z,4.80
2019-02-15T10:31:13.181Z,4.70
2019-02-15T10:33:41.011Z,4.80
2019-02-15T10:36:08.844Z,4.90
2019-02-15T10:38:36.644Z,5.00
2019-02-15T10:41:04.763Z,5.20
2019-02-15T10:43:32.673Z,5.40
2019-02-15T10:46:00.576Z,5.60
2019-02-15T10:48:28.470Z,5.80
2019-02-15T10:50:56.277Z,6.10
2019-02-15T10:53:24.038Z,6.00
2019-02-15T10:55:51.898Z,6.10
2019-02-15T10:58:26.412Z,6.20
2019-02-15T11:00:54.653Z,6.50
2019-02-15T11:03:22.427Z,6.70
2019-02-15T11:05:50.280Z,6.90
2019-02-15T11:08:18.045Z,7.10
2019-02-15T11:10:45.927Z,7.50
2019-02-15T11:13:13.720Z,7.90
2019-02-15T11:15:41.594Z,8.10
2019-02-15T11:18:09.787Z,8.40
2019-02-15T11:20:37.612Z,8.90
2019-02-15T11:23:05.431Z,10.40
2019-02-15T11:25:33.252Z,12.10
2019-02-15T11:28:01.141Z,13.60
2019-02-15T11:30:29.008Z,14.90
2019-02-15T11:32:56.844Z,16.10
2019-02-15T11:35:24.673Z,17.00
2019-02-15T11:38:07.831Z,18.50
2019-02-15T11:40:35.636Z,19.40
2019-02-15T11:43:03.466Z,20.10
2019-02-15T11:45:31.303Z,20.50
2019-02-15T11:47:59.102Z,20.90
2019-02-15T11:50:26.910Z,21.20
2019-02-15T11:52:54.764Z,21.40
2019-02-15T11:55:22.574Z,21.70
2019-02-15T11:57:50.540Z,22.10
2019-02-15T12:00:23.249Z,22.60
2019-02-15T12:02:51.219Z,23.10
2019-02-15T12:05:19.052Z,23.70
2019-02-15T12:07:47.460Z,23.90
2019-02-15T12:10:15.239Z,24.00
2019-02-15T12:12:43.089Z,24.10
2019-02-15T12:15:10.910Z,24.40
2019-02-15T12:17:46.131Z,24.60
2019-02-15T12:20:13.923Z,24.60
2019-02-15T12:22:41.730Z,24.70
2019-02-15T12:25:09.628Z,24.70
2019-02-15T12:27:38.130Z,24.30
2019-02-15T12:30:08.000Z,24.20
2019-02-15T12:32:35.870Z,24.20
2019-02-15T12:35:03.705Z,23.80
2019-02-15T12:37:31.757Z,24.00
2019-02-15T12:40:01.601Z,23.80
2019-02-15T12:42:29.470Z,23.30
2019-02-15T12:44:58.539Z,23.10
2019-02-15T12:47:27.112Z,23.10
2019-02-15T12:49:55.794Z,22.90
2019-02-15T12:52:23.703Z,22.20
2019-02-15T12:54:51.484Z,21.90
2019-02-15T12:57:21.471Z,21.90
2019-02-15T12:59:49.347Z,21.10
2019-02-15T13:02:17.614Z,20.70
2019-02-15T13:04:45.766Z,20.40
2019-02-15T13:07:13.758Z,20.20
2019-02-15T13:09:41.563Z,19.80
2019-02-15T13:12:09.329Z,19.60
2019-02-15T13:14:37.351Z,19.50
2019-02-15T13:17:05.416Z,19.40
2019-02-15T13:19:33.227Z,19.40
2019-02-15T13:22:01.048Z,19.40
2019-02-15T13:24:31.845Z,19.80
2019-02-15T13:26:59.862Z,20.20
2019-02-15T13:29:27.662Z,20.70
2019-02-15T13:31:55.502Z,21.10
2019-02-15T13:34:23.269Z,21.30
2019-02-15T13:36:51.155Z,21.50
2019-02-15T13:39:18.931Z,21.70
2019-02-15T13:41:46.711Z,21.80
2019-02-15T13:44:14.495Z,21.80
2019-02-15T13:46:42.326Z,21.90
2019-02-15T13:49:10.197Z,21.70
2019-02-15T13:51:38.050Z,21.40
2019-02-15T13:54:05.794Z,21.20
2019-02-15T13:56:33.586Z,21.20
2019-02-15T13:59:01.403Z,21.10
2019-02-15T14:01:29.187Z,21.10
2019-02-15T14:03:56.984Z,21.10
2019-02-15T14:06:24.760Z,21.40
2019-02-15T14:08:52.588Z,21.30
2019-02-15T14:11:20.370Z,21.50
2019-02-15T14:13:48.139Z,21.90
2019-02-15T14:16:15.899Z,22.20
2019-02-15T14:18:43.852Z,22.10
2019-02-15T14:21:11.678Z,22.10
2019-02-15T14:23:39.455Z,22.20
2019-02-15T14:26:07.273Z,22.30
2019-02-15T14:28:35.102Z,22.10
2019-02-15T14:31:02.892Z,22.20
2019-02-15T14:33:30.662Z,21.60
2019-02-15T14:35:58.456Z,21.80
2019-02-15T14:38:31.830Z,21.80
2019-02-15T14:40:59.704Z,21.60
2019-02-15T14:43:27.527Z,21.60
2019-02-15T14:45:55.341Z,21.10
2019-02-15T14:48:23.127Z,21.20
2019-02-15T14:50:51.209Z,21.00
2019-02-15T14:53:19.050Z,20.90
2019-02-15T14:55:46.887Z,20.60
2019-02-15T14:58:19.788Z,20.50
2019-02-15T15:00:47.621Z,20.60
2019-02-15T15:03:15.432Z,20.50
2019-02-15T15:05:43.295Z,20.20
2019-02-15T15:08:16.366Z,20.00
2019-02-15T15:10:44.174Z,19.80
2019-02-15T15:13:11.962Z,19.80
2019-02-15T15:15:39.740Z,19.60
2019-02-15T15:18:38.168Z,19.30
2019-02-15T15:21:06.046Z,19.10
2019-02-15T15:23:33.905Z,18.80
2019-02-15T15:26:11.404Z,18.50
2019-02-15T15:28:31.440Z,18.20
2019-02-15T15:30:59.243Z,18.00
2019-02-15T15:33:27.041Z,17.70
2019-02-15T15:35:54.861Z,17.20
2019-02-15T15:38:22.650Z,16.80
2019-02-15T15:40:50.531Z,16.40
2019-02-15T15:43:18.326Z,15.90
2019-02-15T15:45:46.202Z,15.50
2019-02-15T15:48:22.486Z,14.90
2019-02-15T15:50:43.724Z,14.50
2019-02-15T15:53:11.505Z,14.10
2019-02-15T15:55:39.306Z,13.20
2019-02-15T15:58:07.091Z,13.40
2019-02-15T16:00:39.039Z,13.20
2019-02-15T16:03:04.827Z,12.80
2019-02-15T16:05:32.661Z,12.70
2019-02-15T16:08:00.514Z,12.50
2019-02-15T16:10:28.312Z,12.30
2019-02-15T16:12:56.134Z,12.10
2019-02-15T16:15:23.933Z,12.00
2019-02-15T16:17:52.203Z,11.90
2019-02-15T16:20:20.054Z,11.70
2019-02-15T16:22:48.052Z,11.60
2019-02-15T16:25:16.013Z,11.50
2019-02-15T16:27:43.833Z,11.30
2019-02-15T16:30:11.827Z,11.20
2019-02-15T16:32:39.600Z,11.00
2019-02-15T16:35:07.701Z,10.90
2019-02-15T16:37:40.790Z,10.60
2019-02-15T16:40:11.889Z,10.40
2019-02-15T16:42:39.733Z,10.20
2019-02-15T16:45:09.813Z,9.90
2019-02-15T16:47:37.600Z,9.80
2019-02-15T16:50:05.531Z,9.50
2019-02-15T16:52:33.291Z,9.40
2019-02-15T16:55:01.417Z,9.20
2019-02-15T16:57:34.515Z,9.10
2019-02-15T17:00:02.437Z,8.90
2019-02-15T17:02:30.204Z,8.70
2019-02-15T17:04:58.035Z,8.60
2019-02-15T17:07:25.896Z,8.50
2019-02-15T17:09:53.676Z,8.30
2019-02-15T17:12:21.485Z,8.20
2019-02-15T17:14:49.307Z,7.90
2019-02-15T17:17:17.281Z,7.80
2019-02-15T17:19:45.030Z,7.50
2019-02-15T17:22:12.875Z,7.80
2019-02-15T17:24:40.716Z,7.30
2019-02-15T17:27:09.931Z,7.10
2019-02-15T17:29:37.751Z,6.90
2019-02-15T17:32:05.575Z,6.80
2019-02-15T17:34:33.374Z,6.70
2019-02-15T17:37:06.727Z,6.50
2019-02-15T17:39:34.524Z,6.30
2019-02-15T17:42:02.334Z,6.50
2019-02-15T17:44:30.150Z,6.10
2019-02-15T17:46:58.135Z,6.10
2019-02-15T17:49:25.905Z,6.00
2019-02-15T17:51:53.767Z,5.80
2019-02-15T17:54:21.602Z,5.70
2019-02-15T17:56:49.562Z,5.60
2019-02-15T17:59:17.352Z,5.50
2019-02-15T18:01:45.197Z,5.50
2019-02-15T18:04:32.413Z,5.40
2019-02-15T18:07:00.280Z,6.00
2019-02-15T18:09:28.094Z,5.30
2019-02-15T18:11:55.918Z,5.20
2019-02-15T18:14:24.943Z,5.10
2019-02-15T18:16:52.788Z,5.00
2019-02-15T18:19:20.603Z,5.00
2019-02-15T18:21:48.354Z,4.90
2019-02-15T18:24:16.227Z,5.00
2019-02-15T18:26:44.124Z,4.70
2019-02-15T18:29:11.945Z,4.60
2019-02-15T18:31:39.788Z,4.70
2019-02-15T18:34:07.631Z,4.40
2019-02-15T18:36:35.445Z,4.40
2019-02-15T18:39:04.303Z,4.50
2019-02-15T18:41:32.095Z,4.20
2019-02-15T18:43:59.970Z,4.40
2019-02-15T18:46:27.844Z,4.10
2019-02-15T18:49:00.987Z,4.10
2019-02-15T18:51:28.785Z,4.10
2019-02-15T18:53:56.576Z,4.10
2019-02-15T18:56:24.328Z,4.00
2019-02-15T18:58:52.493Z,4.00
2019-02-15T19:01:20.327Z,4.00
2019-02-15T19:03:48.200Z,4.10
2019-02-15T19:06:16.011Z,4.00
2019-02-15T19:08:54.145Z,3.90
2019-02-15T19:11:21.984Z,3.90
2019-02-15T19:13:49.825Z,3.90
2019-02-15T19:16:17.692Z,3.90
2019-02-15T19:18:45.728Z,3.80
2019-02-15T19:21:13.529Z,3.70
2019-02-15T19:23:42.487Z,3.70
2019-02-15T19:26:10.434Z,3.70
2019-02-15T19:28:43.573Z,3.60
2019-02-15T19:31:11.444Z,3.60
2019-02-15T19:33:39.293Z,3.50
2019-02-15T19:36:07.448Z,3.40
2019-02-15T19:38:35.613Z,3.50
2019-02-15T19:41:03.499Z,3.40
2019-02-15T19:43:31.534Z,3.30
2019-02-15T19:45:59.580Z,3.30
2019-02-15T19:48:27.535Z,3.30
2019-02-15T19:50:55.404Z,3.20
2019-02-15T19:53:23.272Z,3.20
2019-02-15T19:55:51.149Z,3.10
2019-02-15T19:58:19.161Z,3.20
2019-02-15T20:00:51.097Z,3.10
2019-02-15T20:03:18.966Z,3.40
2019-02-15T20:05:46.910Z,3.00
2019-02-15T20:08:28.865Z,3.00
2019-02-15T20:11:02.906Z,2.90
2019-02-15T20:13:31.088Z,2.90
2019-02-15T20:15:59.226Z,2.90
2019-02-15T20:18:27.419Z,3.30
2019-02-15T20:20:55.444Z,2.80
2019-02-15T20:23:23.293Z,2.70
2019-02-15T20:25:51.131Z,2.70
2019-02-15T20:28:18.977Z,2.70
2019-02-15T20:30:46.831Z,2.60
2019-02-15T20:33:34.181Z,2.50
2019-02-15T20:36:02.102Z,2.80
2019-02-15T20:38:30.073Z,2.40
2019-02-15T20:40:57.925Z,2.40
2019-02-15T20:43:25.829Z,2.40
2019-02-15T20:45:53.735Z,2.40
2019-02-15T20:48:22.107Z,2.30
2019-02-15T20:50:50.078Z,2.20
2019-02-15T20:53:17.922Z,2.40
2019-02-15T20:55:45.750Z,2.10
2019-02-15T20:58:14.799Z,2.20
2019-02-15T21:00:42.676Z,2.50
2019-02-15T21:03:12.445Z,2.10
2019-02-15T21:05:40.290Z,2.10
2019-02-15T21:08:08.149Z,2.70
2019-02-15T21:10:36.006Z,2.10
2019-02-15T21:13:07.130Z,2.00
2019-02-15T21:15:35.021Z,2.10
2019-02-15T21:18:02.873Z,1.90
2019-02-15T21:20:30.759Z,2.20
2019-02-15T21:22:58.665Z,1.90
2019-02-15T21:25:29.522Z,1.80
2019-02-15T21:27:57.372Z,1.80
2019-02-15T21:30:28.297Z,1.70
2019-02-15T21:32:56.168Z,1.70
2019-02-15T21:35:24.043Z,2.20
2019-02-15T21:37:52.854Z,1.60
2019-02-15T21:40:20.712Z,1.60
2019-02-15T21:42:48.605Z,1.50
2019-02-15T21:45:16.425Z,1.50
2019-02-15T21:47:44.250Z,1.50
2019-02-15T21:50:17.197Z,1.50
2019-02-15T21:52:44.164Z,1.50
2019-02-15T21:55:11.811Z,1.50
2019-02-15T21:57:39.634Z,1.40
2019-02-15T22:00:11.509Z,1.70
2019-02-15T22:02:39.305Z,1.40
2019-02-15T22:05:07.276Z,1.40
2019-02-15T22:07:35.108Z,1.30
2019-02-15T22:10:03.300Z,1.50
2019-02-15T22:12:38.272Z,1.30
2019-02-15T22:15:09.889Z,1.40
2019-02-15T22:17:39.443Z,1.50
2019-02-15T22:20:09.469Z,1.20
2019-02-15T22:22:37.339Z,1.70
2019-02-15T22:25:05.342Z,1.20
2019-02-15T22:27:38.393Z,1.20
2019-02-15T22:30:09.262Z,1.10
2019-02-15T22:32:37.203Z,1.10
2019-02-15T22:35:05.358Z,1.40
2019-02-15T22:37:33.222Z,1.10
2019-02-15T22:40:31.143Z,1.00
2019-02-15T22:43:12.460Z,1.00
2019-02-15T22:45:40.286Z,0.90
2019-02-15T22:48:13.329Z,0.90
2019-02-15T22:50:41.243Z,0.80
2019-02-15T22:53:09.017Z,0.90
2019-02-15T22:55:36.780Z,0.70
2019-02-15T22:58:12.577Z,0.80
2019-02-15T23:00:48.678Z,0.70
2019-02-15T23:03:26.984Z,0.80
2019-02-15T23:05:55.125Z,0.70
2019-02-15T23:08:23.083Z,0.70
2019-02-15T23:10:50.914Z,0.70
2019-02-15T23:13:18.745Z,0.70
2019-02-15T23:15:46.546Z,0.60
2019-02-15T23:18:14.466Z,0.70
2019-02-15T23:20:45.333Z,0.60
2019-02-15T23:23:12.053Z,0.60
2019-02-15T23:25:39.806Z,1.10
2019-02-15T23:28:07.649Z,0.60
2019-02-15T23:30:35.492Z,0.60
2019-02-15T23:33:03.442Z,1.10
2019-02-15T23:35:31.300Z,1.00
2019-02-15T23:37:59.324Z,0.70
2019-02-15T23:40:27.124Z,0.40
2019-02-15T23:42:54.964Z,0.40
2019-02-15T23:45:22.780Z,0.40
2019-02-15T23:47:50.605Z,0.60
2019-02-15T23:50:18.472Z,0.40
2019-02-15T23:52:46.331Z,0.60
2019-02-15T23:55:14.160Z,0.60
2019-02-15T23:57:41.961Z,0.80
